Damanhour, Egypt

13:57 EET 28. Listopad 2014 (GMT +0200)
Alexandria International | Change Station
CLOSE
Current Station
Letiště
Location: Alexandria,
Nadmořská výška: 23 ft
Poblíž povětrnostní stanice

Výška 23 ft 31.18 °N, 29.95 °E | Updated 57 minutes ago

Scattered Clouds
Polojasno
72 °F
Pocit jako 72 °F
S
5
Vítr proměnlivý Vítr od severní

Dnes
Vysoké -- | Nízké -- °F
--% Možnost srážek
Včera
Vysoké -- | Nízké -- °F
Precip. -- inčů
6:35 AM 4:55 PM
Dorůstající srpek, 39% visible
Tlak 30.21 inčů
Viditelnost 6.2 mílí
Zataženo Polojasno 2000 ft
Rosný bod 52 °F
Vlhkost 50%
Dešťové srážky 0.00 inčů
Sněhová pokrývka Není k dispozici
UV záření 4 ze 12
Pyl Není k dispozici
Kvalita ovzduší Není k dispozici
Flu Activity Není k dispozici
METAR HEAX 281100Z 01004KT 9999 SCT020 22/11 Q1023 NOSIG

More Conditions Fewer Conditions

Tlak 30.21 inčů
Viditelnost 6.2 mílí
Zataženo Polojasno 2000 ft
Rosný bod 52 °F
Vlhkost 50%
Dešťové srážky 0.00 inčů
Sněhová pokrývka Není k dispozici
UV záření 4 ze 12
Pyl Není k dispozici
Kvalita ovzduší Není k dispozici
Flu Activity Není k dispozici
METAR HEAX 281100Z 01004KT 9999 SCT020 22/11 Q1023 NOSIG

More Conditions Fewer Conditions

10-Day Weather Forecast

Almanac

Astronomie

Nov. 28, 2014 Východ Západ
Skutečný čas
Občanský soumrak
Námořní soumrak
Astronomický soumrak
Měsíc
Délka denního světla
Délka dne
Tomorrow will be .
, % of the Moon is Illuminated

Dnešní extrémy

Nejvyšší hodnoty ve státě Nejnižší hodnoty ve státě

Community

WunderPhotos

Upload Photos

1,774,198 snímků staženo!

WunderBlogs® & News

Nearby

Kvalita ovzduší

  Kvalita ovzduší Index kvality ovzduší Polutant
Not available.

Výška sněhu

Station Hloubka Nadmořská výška

Seizmická činnost

Město Distance Mag. Čas & datum
Minimální zobrazený rozsah je 2.5.

Pobřežní teplota vody

Lokalita Teplota

Poblíž povětrnostní stanice